Decoded Metar for LRBS (BUCHAREST in ROMANIA) (IATA:BBU) | Meteo·Mobile Aviation Weather
aviador You're here:

LRBS Decoded Metar

BUCHAREST in ROMANIA
Report Time2019-08-24 13:00:00
UTC Time2019-08-24 13:10:12
Flight Rules vfr VFR
Wind070° at 08 kt
W.Decomp.*RWY 07: 8.0 kt HW 0.6 kt LCW
Visibility9999 m
Phenomena:N/A
Clouds:N/A
Expected CloudBase > 7,200 ft AGL from Temp-Dew spread
CeilingNone
Temp32°C (ISA +18)
Dew Point14°C (33% RH)
Heat Index31.2°C
AAT30.3°C
QNH1021 hPa
Density Alt2,254 ft
Elevation299 ft
Report Wrong Elevation
Raw Report
METAR LRBS 241300Z 07008KT CAVOK 32/14 Q1021 NOSIG=

Extra information for LRBS:More info

Metar Taf Metar & Taf Last 4 Metars F.Rules Stats Wind Profile Meteogram Temp Stats Airport Information Weather charts Add Link Nearby VenuesMetar ALERT Operation Metar Decoded Social comments